sensor_id;sensor_type;location;lat;lon;timestamp;temperature;humidity
8591;DHT22;4333;48.322;14.340;2023-02-15T00:02:07;-0.40;99.90
8591;DHT22;4333;48.322;14.340;2023-02-15T00:04:33;-0.40;99.90
8591;DHT22;4333;48.322;14.340;2023-02-15T00:07:18;-0.40;99.90
8591;DHT22;4333;48.322;14.340;2023-02-15T00:09:47;-0.40;99.90
8591;DHT22;4333;48.322;14.340;2023-02-15T00:12:14;-0.40;99.90
8591;DHT22;4333;48.322;14.340;2023-02-15T00:14:40;-0.30;99.90
8591;DHT22;4333;48.322;14.340;2023-02-15T00:17:07;-0.30;99.90
8591;DHT22;4333;48.322;14.340;2023-02-15T00:19:33;-0.40;99.90
8591;DHT22;4333;48.322;14.340;2023-02-15T00:22:02;-0.40;99.90
8591;DHT22;4333;48.322;14.340;2023-02-15T00:24:30;-0.40;99.90
8591;DHT22;4333;48.322;14.340;2023-02-15T00:26:56;-0.30;99.90
8591;DHT22;4333;48.322;14.340;2023-02-15T00:29:22;-0.30;99.90
8591;DHT22;4333;48.322;14.340;2023-02-15T00:31:47;-0.30;99.90
8591;DHT22;4333;48.322;14.340;2023-02-15T00:34:19;-0.30;99.90
8591;DHT22;4333;48.322;14.340;2023-02-15T00:36:48;-0.20;99.90
8591;DHT22;4333;48.322;14.340;2023-02-15T00:39:15;-0.20;99.90
8591;DHT22;4333;48.322;14.340;2023-02-15T00:41:41;-0.10;99.90
8591;DHT22;4333;48.322;14.340;2023-02-15T00:44:07;-0.10;99.90
8591;DHT22;4333;48.322;14.340;2023-02-15T00:46:33;-0.10;99.90
8591;DHT22;4333;48.322;14.340;2023-02-15T00:49:03;-0.10;99.90
8591;DHT22;4333;48.322;14.340;2023-02-15T00:51:29;-0.10;99.90
8591;DHT22;4333;48.322;14.340;2023-02-15T00:53:55;0.00;99.90
8591;DHT22;4333;48.322;14.340;2023-02-15T00:56:26;0.00;99.90
8591;DHT22;4333;48.322;14.340;2023-02-15T00:58:53;0.00;99.90
8591;DHT22;4333;48.322;14.340;2023-02-15T01:01:20;0.00;99.90
8591;DHT22;4333;48.322;14.340;2023-02-15T01:03:47;0.00;99.90
8591;DHT22;4333;48.322;14.340;2023-02-15T01:06:16;0.00;99.90
8591;DHT22;4333;48.322;14.340;2023-02-15T01:08:46;0.10;99.90
8591;DHT22;4333;48.322;14.340;2023-02-15T01:11:18;0.10;99.90
8591;DHT22;4333;48.322;14.340;2023-02-15T01:13:52;0.10;99.90
8591;DHT22;4333;48.322;14.340;2023-02-15T01:16:22;0.10;99.90
8591;DHT22;4333;48.322;14.340;2023-02-15T01:18:48;0.20;99.90
8591;DHT22;4333;48.322;14.340;2023-02-15T01:21:20;0.20;99.90
8591;DHT22;4333;48.322;14.340;2023-02-15T01:23:46;0.20;99.90
8591;DHT22;4333;48.322;14.340;2023-02-15T01:26:13;0.20;99.90
8591;DHT22;4333;48.322;14.340;2023-02-15T01:28:42;0.20;99.90
8591;DHT22;4333;48.322;14.340;2023-02-15T01:31:10;0.20;99.90
8591;DHT22;4333;48.322;14.340;2023-02-15T01:33:39;0.20;99.90
8591;DHT22;4333;48.322;14.340;2023-02-15T01:36:05;0.20;99.90
8591;DHT22;4333;48.322;14.340;2023-02-15T01:38:32;0.20;99.90
8591;DHT22;4333;48.322;14.340;2023-02-15T01:41:04;0.30;99.90
8591;DHT22;4333;48.322;14.340;2023-02-15T01:44:00;0.30;99.90
8591;DHT22;4333;48.322;14.340;2023-02-15T01:46:40;0.30;99.90
8591;DHT22;4333;48.322;14.340;2023-02-15T01:49:17;0.30;99.90
8591;DHT22;4333;48.322;14.340;2023-02-15T01:51:52;0.30;99.90
8591;DHT22;4333;48.322;14.340;2023-02-15T01:54:44;0.30;99.90
8591;DHT22;4333;48.322;14.340;2023-02-15T01:57:16;0.30;99.90
8591;DHT22;4333;48.322;14.340;2023-02-15T01:59:50;0.30;99.90
8591;DHT22;4333;48.322;14.340;2023-02-15T02:02:19;0.30;99.90
8591;DHT22;4333;48.322;14.340;2023-02-15T02:04:56;0.40;99.90
8591;DHT22;4333;48.322;14.340;2023-02-15T02:07:27;0.40;99.90
8591;DHT22;4333;48.322;14.340;2023-02-15T02:09:54;0.40;99.90
8591;DHT22;4333;48.322;14.340;2023-02-15T02:12:21;0.30;99.90
8591;DHT22;4333;48.322;14.340;2023-02-15T02:14:49;0.40;99.90
8591;DHT22;4333;48.322;14.340;2023-02-15T02:17:32;0.30;99.90
8591;DHT22;4333;48.322;14.340;2023-02-15T02:33:38;0.40;99.90
8591;DHT22;4333;48.322;14.340;2023-02-15T02:36:35;0.40;99.90
8591;DHT22;4333;48.322;14.340;2023-02-15T02:39:07;0.40;99.90
8591;DHT22;4333;48.322;14.340;2023-02-15T02:46:59;0.40;99.90
8591;DHT22;4333;48.322;14.340;2023-02-15T02:49:37;0.40;99.90
8591;DHT22;4333;48.322;14.340;2023-02-15T02:55:07;0.50;99.90
8591;DHT22;4333;48.322;14.340;2023-02-15T02:57:34;0.50;99.90
8591;DHT22;4333;48.322;14.340;2023-02-15T03:00:05;0.50;99.90
8591;DHT22;4333;48.322;14.340;2023-02-15T03:02:38;0.50;99.90
8591;DHT22;4333;48.322;14.340;2023-02-15T03:05:13;0.50;99.90
8591;DHT22;4333;48.322;14.340;2023-02-15T03:07:41;0.50;99.90
8591;DHT22;4333;48.322;14.340;2023-02-15T03:10:11;0.50;99.90
8591;DHT22;4333;48.322;14.340;2023-02-15T03:12:39;0.50;99.90
8591;DHT22;4333;48.322;14.340;2023-02-15T03:15:16;0.50;99.90
8591;DHT22;4333;48.322;14.340;2023-02-15T03:17:50;0.50;99.90
8591;DHT22;4333;48.322;14.340;2023-02-15T03:20:24;0.50;99.90
8591;DHT22;4333;48.322;14.340;2023-02-15T03:25:36;0.40;99.90
8591;DHT22;4333;48.322;14.340;2023-02-15T03:28:07;0.40;99.90
8591;DHT22;4333;48.322;14.340;2023-02-15T03:30:35;0.40;99.90
8591;DHT22;4333;48.322;14.340;2023-02-15T03:33:03;0.30;99.90
8591;DHT22;4333;48.322;14.340;2023-02-15T03:35:54;0.30;99.90
8591;DHT22;4333;48.322;14.340;2023-02-15T03:38:38;0.30;99.90
8591;DHT22;4333;48.322;14.340;2023-02-15T03:41:10;0.30;99.90
8591;DHT22;4333;48.322;14.340;2023-02-15T03:43:53;0.30;99.90
8591;DHT22;4333;48.322;14.340;2023-02-15T03:46:31;0.30;99.90
8591;DHT22;4333;48.322;14.340;2023-02-15T03:49:13;0.40;99.90
8591;DHT22;4333;48.322;14.340;2023-02-15T03:51:45;0.40;99.90
8591;DHT22;4333;48.322;14.340;2023-02-15T03:54:18;0.40;99.90
8591;DHT22;4333;48.322;14.340;2023-02-15T03:57:04;0.40;99.90
8591;DHT22;4333;48.322;14.340;2023-02-15T03:59:48;0.40;99.90
8591;DHT22;4333;48.322;14.340;2023-02-15T04:02:46;0.30;99.90
8591;DHT22;4333;48.322;14.340;2023-02-15T04:05:15;0.40;99.90
8591;DHT22;4333;48.322;14.340;2023-02-15T04:07:40;0.30;99.90
8591;DHT22;4333;48.322;14.340;2023-02-15T04:10:06;0.40;99.90
8591;DHT22;4333;48.322;14.340;2023-02-15T04:12:53;0.40;99.90
8591;DHT22;4333;48.322;14.340;2023-02-15T04:15:18;0.40;99.90
8591;DHT22;4333;48.322;14.340;2023-02-15T04:18:03;0.40;99.90
8591;DHT22;4333;48.322;14.340;2023-02-15T04:20:29;0.40;99.90
8591;DHT22;4333;48.322;14.340;2023-02-15T04:23:16;0.40;99.90
8591;DHT22;4333;48.322;14.340;2023-02-15T04:26:04;0.40;99.90
8591;DHT22;4333;48.322;14.340;2023-02-15T04:28:35;0.40;99.90
8591;DHT22;4333;48.322;14.340;2023-02-15T04:31:03;0.40;99.90
8591;DHT22;4333;48.322;14.340;2023-02-15T04:33:32;0.50;99.90
8591;DHT22;4333;48.322;14.340;2023-02-15T04:36:03;0.50;99.90
8591;DHT22;4333;48.322;14.340;2023-02-15T04:38:29;0.50;99.90
8591;DHT22;4333;48.322;14.340;2023-02-15T04:40:55;0.60;99.90
8591;DHT22;4333;48.322;14.340;2023-02-15T04:43:20;0.60;99.90
8591;DHT22;4333;48.322;14.340;2023-02-15T04:45:50;0.60;99.90
8591;DHT22;4333;48.322;14.340;2023-02-15T04:48:17;0.50;99.90
8591;DHT22;4333;48.322;14.340;2023-02-15T04:50:44;0.50;99.90
8591;DHT22;4333;48.322;14.340;2023-02-15T04:53:12;0.50;99.90
8591;DHT22;4333;48.322;14.340;2023-02-15T04:55:38;0.60;99.90
8591;DHT22;4333;48.322;14.340;2023-02-15T04:58:07;0.60;99.90
8591;DHT22;4333;48.322;14.340;2023-02-15T05:00:33;0.60;99.90
8591;DHT22;4333;48.322;14.340;2023-02-15T05:02:58;0.60;99.90
8591;DHT22;4333;48.322;14.340;2023-02-15T05:05:24;0.60;99.90
8591;DHT22;4333;48.322;14.340;2023-02-15T05:07:50;0.70;99.90
8591;DHT22;4333;48.322;14.340;2023-02-15T05:10:18;0.70;99.90
8591;DHT22;4333;48.322;14.340;2023-02-15T05:12:44;0.70;99.90
8591;DHT22;4333;48.322;14.340;2023-02-15T05:15:10;0.70;99.90
8591;DHT22;4333;48.322;14.340;2023-02-15T05:17:36;0.70;99.90
8591;DHT22;4333;48.322;14.340;2023-02-15T05:20:03;0.70;99.90
8591;DHT22;4333;48.322;14.340;2023-02-15T05:22:31;0.80;99.90
8591;DHT22;4333;48.322;14.340;2023-02-15T05:25:00;0.70;99.90
8591;DHT22;4333;48.322;14.340;2023-02-15T05:27:47;0.80;99.90
8591;DHT22;4333;48.322;14.340;2023-02-15T05:30:32;0.70;99.90
8591;DHT22;4333;48.322;14.340;2023-02-15T05:33:01;0.70;99.90
8591;DHT22;4333;48.322;14.340;2023-02-15T05:35:27;0.70;99.90
8591;DHT22;4333;48.322;14.340;2023-02-15T05:37:52;0.70;99.90
8591;DHT22;4333;48.322;14.340;2023-02-15T05:40:18;0.70;99.90
8591;DHT22;4333;48.322;14.340;2023-02-15T05:42:44;0.70;99.90
8591;DHT22;4333;48.322;14.340;2023-02-15T05:45:12;0.70;99.90
8591;DHT22;4333;48.322;14.340;2023-02-15T05:51:05;0.70;99.90
8591;DHT22;4333;48.322;14.340;2023-02-15T05:53:34;0.70;99.90
8591;DHT22;4333;48.322;14.340;2023-02-15T05:56:08;0.70;99.90
8591;DHT22;4333;48.322;14.340;2023-02-15T05:58:36;0.70;99.90
8591;DHT22;4333;48.322;14.340;2023-02-15T06:01:13;0.70;99.90
8591;DHT22;4333;48.322;14.340;2023-02-15T06:03:39;0.70;99.90
8591;DHT22;4333;48.322;14.340;2023-02-15T06:06:06;0.70;99.90
8591;DHT22;4333;48.322;14.340;2023-02-15T06:08:33;0.70;99.90
8591;DHT22;4333;48.322;14.340;2023-02-15T06:10:59;0.60;99.90
8591;DHT22;4333;48.322;14.340;2023-02-15T06:13:25;0.70;99.90
8591;DHT22;4333;48.322;14.340;2023-02-15T06:15:51;0.60;99.90
8591;DHT22;4333;48.322;14.340;2023-02-15T06:18:19;0.60;99.90
8591;DHT22;4333;48.322;14.340;2023-02-15T06:20:46;0.70;99.90
8591;DHT22;4333;48.322;14.340;2023-02-15T06:23:23;0.70;99.90
8591;DHT22;4333;48.322;14.340;2023-02-15T06:25:57;0.60;99.90
8591;DHT22;4333;48.322;14.340;2023-02-15T06:28:23;0.60;99.90
8591;DHT22;4333;48.322;14.340;2023-02-15T06:30:51;0.40;99.90
8591;DHT22;4333;48.322;14.340;2023-02-15T06:33:20;0.40;99.90
8591;DHT22;4333;48.322;14.340;2023-02-15T06:35:50;0.50;99.90
8591;DHT22;4333;48.322;14.340;2023-02-15T06:38:15;0.50;99.90
8591;DHT22;4333;48.322;14.340;2023-02-15T06:40:41;0.40;99.90
8591;DHT22;4333;48.322;14.340;2023-02-15T06:43:10;0.50;99.90
8591;DHT22;4333;48.322;14.340;2023-02-15T06:45:36;0.40;99.90
8591;DHT22;4333;48.322;14.340;2023-02-15T06:48:04;0.40;99.90
8591;DHT22;4333;48.322;14.340;2023-02-15T06:50:32;0.50;99.90
8591;DHT22;4333;48.322;14.340;2023-02-15T06:52:59;0.40;99.90
8591;DHT22;4333;48.322;14.340;2023-02-15T06:55:25;0.30;99.90
8591;DHT22;4333;48.322;14.340;2023-02-15T06:57:54;0.30;99.90
8591;DHT22;4333;48.322;14.340;2023-02-15T07:00:20;0.20;99.90
8591;DHT22;4333;48.322;14.340;2023-02-15T07:02:55;0.20;99.90
8591;DHT22;4333;48.322;14.340;2023-02-15T07:05:24;0.20;99.90
8591;DHT22;4333;48.322;14.340;2023-02-15T07:08:04;0.20;99.90
8591;DHT22;4333;48.322;14.340;2023-02-15T07:10:30;0.20;99.90
8591;DHT22;4333;48.322;14.340;2023-02-15T07:12:56;0.20;99.90
8591;DHT22;4333;48.322;14.340;2023-02-15T07:15:21;0.30;99.90
8591;DHT22;4333;48.322;14.340;2023-02-15T07:17:47;0.30;99.90
8591;DHT22;4333;48.322;14.340;2023-02-15T07:20:19;0.40;99.90
8591;DHT22;4333;48.322;14.340;2023-02-15T07:22:46;0.40;99.90
8591;DHT22;4333;48.322;14.340;2023-02-15T07:25:15;0.30;99.90
8591;DHT22;4333;48.322;14.340;2023-02-15T07:27:41;0.30;99.90
8591;DHT22;4333;48.322;14.340;2023-02-15T07:30:10;0.30;99.90
8591;DHT22;4333;48.322;14.340;2023-02-15T07:32:39;0.40;99.90
8591;DHT22;4333;48.322;14.340;2023-02-15T07:35:25;0.50;99.90
8591;DHT22;4333;48.322;14.340;2023-02-15T07:37:51;0.50;99.90
8591;DHT22;4333;48.322;14.340;2023-02-15T07:40:18;0.60;99.90
8591;DHT22;4333;48.322;14.340;2023-02-15T07:42:44;0.70;99.90
8591;DHT22;4333;48.322;14.340;2023-02-15T07:45:10;0.70;99.90
8591;DHT22;4333;48.322;14.340;2023-02-15T07:47:36;0.70;99.90
8591;DHT22;4333;48.322;14.340;2023-02-15T07:50:05;0.80;99.90
8591;DHT22;4333;48.322;14.340;2023-02-15T07:52:36;0.80;99.90
8591;DHT22;4333;48.322;14.340;2023-02-15T07:55:05;0.80;99.90
8591;DHT22;4333;48.322;14.340;2023-02-15T07:57:31;0.80;99.90
8591;DHT22;4333;48.322;14.340;2023-02-15T07:59:57;0.80;99.90
8591;DHT22;4333;48.322;14.340;2023-02-15T08:02:22;0.90;99.90
8591;DHT22;4333;48.322;14.340;2023-02-15T08:04:48;0.90;99.90
8591;DHT22;4333;48.322;14.340;2023-02-15T08:07:17;0.90;99.90
8591;DHT22;4333;48.322;14.340;2023-02-15T08:09:43;0.90;99.90
8591;DHT22;4333;48.322;14.340;2023-02-15T08:12:09;1.00;99.90
8591;DHT22;4333;48.322;14.340;2023-02-15T08:14:34;1.00;99.90
8591;DHT22;4333;48.322;14.340;2023-02-15T08:17:00;1.00;99.90
8591;DHT22;4333;48.322;14.340;2023-02-15T08:19:31;1.00;99.90
8591;DHT22;4333;48.322;14.340;2023-02-15T08:22:03;1.00;99.90
8591;DHT22;4333;48.322;14.340;2023-02-15T08:24:36;1.00;99.90
8591;DHT22;4333;48.322;14.340;2023-02-15T08:27:06;1.00;99.90
8591;DHT22;4333;48.322;14.340;2023-02-15T08:29:34;1.00;99.90
8591;DHT22;4333;48.322;14.340;2023-02-15T08:32:06;1.10;99.90
8591;DHT22;4333;48.322;14.340;2023-02-15T08:34:38;1.10;99.90
8591;DHT22;4333;48.322;14.340;2023-02-15T08:47:10;1.10;99.90
8591;DHT22;4333;48.322;14.340;2023-02-15T08:49:36;1.10;99.90
8591;DHT22;4333;48.322;14.340;2023-02-15T08:52:01;1.20;99.90
8591;DHT22;4333;48.322;14.340;2023-02-15T08:54:30;1.20;99.90
8591;DHT22;4333;48.322;14.340;2023-02-15T08:56:56;1.10;99.90
8591;DHT22;4333;48.322;14.340;2023-02-15T08:59:23;1.20;99.90
8591;DHT22;4333;48.322;14.340;2023-02-15T09:01:51;1.20;99.90
8591;DHT22;4333;48.322;14.340;2023-02-15T09:04:17;1.20;99.90
8591;DHT22;4333;48.322;14.340;2023-02-15T09:06:50;1.30;99.90
8591;DHT22;4333;48.322;14.340;2023-02-15T09:09:19;1.30;99.90
8591;DHT22;4333;48.322;14.340;2023-02-15T09:11:47;1.30;99.90
8591;DHT22;4333;48.322;14.340;2023-02-15T09:14:18;1.20;99.90
8591;DHT22;4333;48.322;14.340;2023-02-15T09:16:46;1.10;99.90
8591;DHT22;4333;48.322;14.340;2023-02-15T09:19:14;1.20;99.90
8591;DHT22;4333;48.322;14.340;2023-02-15T09:21:40;1.20;99.90
8591;DHT22;4333;48.322;14.340;2023-02-15T09:24:09;1.20;99.90
8591;DHT22;4333;48.322;14.340;2023-02-15T09:26:38;1.30;99.90
8591;DHT22;4333;48.322;14.340;2023-02-15T09:29:06;1.20;99.90
8591;DHT22;4333;48.322;14.340;2023-02-15T09:31:36;1.20;99.90
8591;DHT22;4333;48.322;14.340;2023-02-15T09:34:05;1.10;99.90
8591;DHT22;4333;48.322;14.340;2023-02-15T09:36:33;1.10;99.90
8591;DHT22;4333;48.322;14.340;2023-02-15T09:39:22;1.20;99.90
8591;DHT22;4333;48.322;14.340;2023-02-15T09:56:40;1.70;99.90
8591;DHT22;4333;48.322;14.340;2023-02-15T10:18:27;1.90;99.90
8591;DHT22;4333;48.322;14.340;2023-02-15T10:26:46;2.10;99.90
8591;DHT22;4333;48.322;14.340;2023-02-15T10:34:48;2.10;99.90
8591;DHT22;4333;48.322;14.340;2023-02-15T10:51:05;2.10;99.90
8591;DHT22;4333;48.322;14.340;2023-02-15T10:56:24;2.20;99.90
8591;DHT22;4333;48.322;14.340;2023-02-15T11:09:49;2.40;99.90
8591;DHT22;4333;48.322;14.340;2023-02-15T11:12:20;2.30;99.90
8591;DHT22;4333;48.322;14.340;2023-02-15T11:15:04;2.30;99.90
8591;DHT22;4333;48.322;14.340;2023-02-15T11:17:43;2.20;99.90
8591;DHT22;4333;48.322;14.340;2023-02-15T11:22:50;2.20;99.90
8591;DHT22;4333;48.322;14.340;2023-02-15T11:25:25;2.30;99.90
8591;DHT22;4333;48.322;14.340;2023-02-15T11:27:54;2.30;99.90
8591;DHT22;4333;48.322;14.340;2023-02-15T11:30:28;2.30;99.90
8591;DHT22;4333;48.322;14.340;2023-02-15T11:32:58;2.40;99.90
8591;DHT22;4333;48.322;14.340;2023-02-15T11:36:03;2.40;99.90
8591;DHT22;4333;48.322;14.340;2023-02-15T11:38:29;2.40;99.90
8591;DHT22;4333;48.322;14.340;2023-02-15T11:41:10;2.50;99.90
8591;DHT22;4333;48.322;14.340;2023-02-15T11:43:48;2.50;99.90
8591;DHT22;4333;48.322;14.340;2023-02-15T11:46:17;2.50;99.90
8591;DHT22;4333;48.322;14.340;2023-02-15T11:48:46;2.60;99.90
8591;DHT22;4333;48.322;14.340;2023-02-15T11:51:21;2.40;99.90
8591;DHT22;4333;48.322;14.340;2023-02-15T11:53:48;2.40;99.90
8591;DHT22;4333;48.322;14.340;2023-02-15T11:56:24;2.40;99.90
8591;DHT22;4333;48.322;14.340;2023-02-15T12:01:29;2.50;99.90
8591;DHT22;4333;48.322;14.340;2023-02-15T12:06:58;2.70;99.90
8591;DHT22;4333;48.322;14.340;2023-02-15T12:12:26;2.80;99.90
8591;DHT22;4333;48.322;14.340;2023-02-15T12:15:03;2.50;99.90
8591;DHT22;4333;48.322;14.340;2023-02-15T12:17:40;2.40;99.90
8591;DHT22;4333;48.322;14.340;2023-02-15T12:20:28;2.30;99.90
8591;DHT22;4333;48.322;14.340;2023-02-15T12:23:01;2.10;99.90
8591;DHT22;4333;48.322;14.340;2023-02-15T12:25:53;2.10;99.90
8591;DHT22;4333;48.322;14.340;2023-02-15T12:28:42;2.20;99.90
8591;DHT22;4333;48.322;14.340;2023-02-15T12:31:36;2.20;99.90
8591;DHT22;4333;48.322;14.340;2023-02-15T12:36:54;2.20;99.90
8591;DHT22;4333;48.322;14.340;2023-02-15T12:39:30;2.30;99.90
8591;DHT22;4333;48.322;14.340;2023-02-15T12:42:17;2.40;99.90
8591;DHT22;4333;48.322;14.340;2023-02-15T12:45:19;2.60;99.90
8591;DHT22;4333;48.322;14.340;2023-02-15T12:47:46;2.70;99.90
8591;DHT22;4333;48.322;14.340;2023-02-15T12:50:24;2.70;99.90
8591;DHT22;4333;48.322;14.340;2023-02-15T12:55:32;2.70;99.90
8591;DHT22;4333;48.322;14.340;2023-02-15T13:00:40;2.20;99.90
8591;DHT22;4333;48.322;14.340;2023-02-15T13:03:16;2.10;99.90
8591;DHT22;4333;48.322;14.340;2023-02-15T13:05:44;2.00;99.90
8591;DHT22;4333;48.322;14.340;2023-02-15T13:08:19;2.00;99.90
8591;DHT22;4333;48.322;14.340;2023-02-15T13:13:35;2.40;99.90
8591;DHT22;4333;48.322;14.340;2023-02-15T13:16:16;2.50;99.90
8591;DHT22;4333;48.322;14.340;2023-02-15T13:18:46;2.50;99.90
8591;DHT22;4333;48.322;14.340;2023-02-15T13:21:21;2.60;99.90
8591;DHT22;4333;48.322;14.340;2023-02-15T13:27:20;2.80;99.90
8591;DHT22;4333;48.322;14.340;2023-02-15T13:29:57;2.80;99.90
8591;DHT22;4333;48.322;14.340;2023-02-15T13:32:34;2.80;99.90
8591;DHT22;4333;48.322;14.340;2023-02-15T13:35:02;2.80;99.90
8591;DHT22;4333;48.322;14.340;2023-02-15T13:43:17;2.80;99.90
8591;DHT22;4333;48.322;14.340;2023-02-15T13:51:18;2.90;99.90
8591;DHT22;4333;48.322;14.340;2023-02-15T14:05:29;2.80;99.90
8591;DHT22;4333;48.322;14.340;2023-02-15T14:08:22;2.80;99.90
8591;DHT22;4333;48.322;14.340;2023-02-15T14:11:17;2.70;99.90
8591;DHT22;4333;48.322;14.340;2023-02-15T14:16:36;2.70;99.90
8591;DHT22;4333;48.322;14.340;2023-02-15T14:24:45;2.60;99.90
8591;DHT22;4333;48.322;14.340;2023-02-15T14:27:35;2.70;99.90
8591;DHT22;4333;48.322;14.340;2023-02-15T14:30:34;2.60;99.90
8591;DHT22;4333;48.322;14.340;2023-02-15T14:35:50;2.20;99.90
8591;DHT22;4333;48.322;14.340;2023-02-15T14:40:54;2.00;99.90
8591;DHT22;4333;48.322;14.340;2023-02-15T14:46:29;2.00;99.90
8591;DHT22;4333;48.322;14.340;2023-02-15T14:49:09;2.10;99.90
8591;DHT22;4333;48.322;14.340;2023-02-15T15:05:16;2.20;99.90
8591;DHT22;4333;48.322;14.340;2023-02-15T15:07:49;2.20;99.90
8591;DHT22;4333;48.322;14.340;2023-02-15T15:12:53;2.00;99.90
8591;DHT22;4333;48.322;14.340;2023-02-15T15:18:03;2.00;99.90
8591;DHT22;4333;48.322;14.340;2023-02-15T15:25:48;2.10;99.90
8591;DHT22;4333;48.322;14.340;2023-02-15T15:51:05;1.80;99.90
8591;DHT22;4333;48.322;14.340;2023-02-15T15:53:40;1.80;99.90
8591;DHT22;4333;48.322;14.340;2023-02-15T15:56:29;1.80;99.90
8591;DHT22;4333;48.322;14.340;2023-02-15T15:59:06;1.60;99.90
8591;DHT22;4333;48.322;14.340;2023-02-15T16:01:44;1.50;99.90
8591;DHT22;4333;48.322;14.340;2023-02-15T16:04:25;1.40;99.90
8591;DHT22;4333;48.322;14.340;2023-02-15T16:06:56;1.40;99.90
8591;DHT22;4333;48.322;14.340;2023-02-15T16:09:27;1.40;99.90
8591;DHT22;4333;48.322;14.340;2023-02-15T16:11:59;1.40;99.90
8591;DHT22;4333;48.322;14.340;2023-02-15T16:14:40;1.30;99.90
8591;DHT22;4333;48.322;14.340;2023-02-15T16:17:18;1.30;99.90
8591;DHT22;4333;48.322;14.340;2023-02-15T16:19:45;1.30;99.90
8591;DHT22;4333;48.322;14.340;2023-02-15T16:22:20;1.30;99.90
8591;DHT22;4333;48.322;14.340;2023-02-15T16:27:44;1.40;99.90
8591;DHT22;4333;48.322;14.340;2023-02-15T16:30:34;1.40;99.90
8591;DHT22;4333;48.322;14.340;2023-02-15T16:33:12;1.40;99.90
8591;DHT22;4333;48.322;14.340;2023-02-15T16:35:56;1.40;99.90
8591;DHT22;4333;48.322;14.340;2023-02-15T16:41:11;1.40;99.90
8591;DHT22;4333;48.322;14.340;2023-02-15T16:43:40;1.40;99.90
8591;DHT22;4333;48.322;14.340;2023-02-15T16:46:14;1.40;99.90
8591;DHT22;4333;48.322;14.340;2023-02-15T16:48:51;1.40;99.90
8591;DHT22;4333;48.322;14.340;2023-02-15T16:51:26;1.50;99.90
8591;DHT22;4333;48.322;14.340;2023-02-15T16:53:54;1.50;99.90
8591;DHT22;4333;48.322;14.340;2023-02-15T16:56:33;1.50;99.90
8591;DHT22;4333;48.322;14.340;2023-02-15T16:59:00;1.50;99.90
8591;DHT22;4333;48.322;14.340;2023-02-15T17:01:28;1.50;99.90
8591;DHT22;4333;48.322;14.340;2023-02-15T17:04:33;1.50;99.90
8591;DHT22;4333;48.322;14.340;2023-02-15T17:07:18;1.50;99.90
8591;DHT22;4333;48.322;14.340;2023-02-15T17:09:55;1.40;99.90
8591;DHT22;4333;48.322;14.340;2023-02-15T17:15:29;1.40;99.90
8591;DHT22;4333;48.322;14.340;2023-02-15T17:17:58;1.50;99.90
8591;DHT22;4333;48.322;14.340;2023-02-15T17:20:25;1.40;99.90
8591;DHT22;4333;48.322;14.340;2023-02-15T17:22:52;1.40;99.90
8591;DHT22;4333;48.322;14.340;2023-02-15T17:25:30;1.40;99.90
8591;DHT22;4333;48.322;14.340;2023-02-15T17:27:57;1.30;99.90
8591;DHT22;4333;48.322;14.340;2023-02-15T17:30:32;1.40;99.90
8591;DHT22;4333;48.322;14.340;2023-02-15T17:33:03;1.40;99.90
8591;DHT22;4333;48.322;14.340;2023-02-15T17:35:33;1.40;99.90
8591;DHT22;4333;48.322;14.340;2023-02-15T17:38:21;1.50;99.90
8591;DHT22;4333;48.322;14.340;2023-02-15T17:40:47;1.50;99.90
8591;DHT22;4333;48.322;14.340;2023-02-15T17:43:13;1.50;99.90
8591;DHT22;4333;48.322;14.340;2023-02-15T17:45:44;1.50;99.90
8591;DHT22;4333;48.322;14.340;2023-02-15T17:48:20;1.50;99.90
8591;DHT22;4333;48.322;14.340;2023-02-15T17:50:46;1.50;99.90
8591;DHT22;4333;48.322;14.340;2023-02-15T17:53:14;1.50;99.90
8591;DHT22;4333;48.322;14.340;2023-02-15T17:55:41;1.40;99.90
8591;DHT22;4333;48.322;14.340;2023-02-15T17:58:16;1.40;99.90
8591;DHT22;4333;48.322;14.340;2023-02-15T18:00:53;1.40;99.90
8591;DHT22;4333;48.322;14.340;2023-02-15T18:03:47;1.40;99.90
8591;DHT22;4333;48.322;14.340;2023-02-15T18:06:34;1.50;99.90
8591;DHT22;4333;48.322;14.340;2023-02-15T18:09:22;1.50;99.90
8591;DHT22;4333;48.322;14.340;2023-02-15T18:12:27;1.40;99.90
8591;DHT22;4333;48.322;14.340;2023-02-15T18:14:55;1.40;99.90
8591;DHT22;4333;48.322;14.340;2023-02-15T18:20:20;1.40;99.90
8591;DHT22;4333;48.322;14.340;2023-02-15T18:22:50;1.50;99.90
8591;DHT22;4333;48.322;14.340;2023-02-15T18:25:18;1.40;99.90
8591;DHT22;4333;48.322;14.340;2023-02-15T18:27:45;1.30;99.90
8591;DHT22;4333;48.322;14.340;2023-02-15T18:30:29;1.40;99.90
8591;DHT22;4333;48.322;14.340;2023-02-15T18:32:56;1.40;99.90
8591;DHT22;4333;48.322;14.340;2023-02-15T18:35:29;1.40;99.90
8591;DHT22;4333;48.322;14.340;2023-02-15T18:37:56;1.40;99.90
8591;DHT22;4333;48.322;14.340;2023-02-15T18:40:25;1.30;99.90
8591;DHT22;4333;48.322;14.340;2023-02-15T18:42:52;1.20;99.90
8591;DHT22;4333;48.322;14.340;2023-02-15T18:45:26;1.30;99.90
8591;DHT22;4333;48.322;14.340;2023-02-15T18:47:57;1.30;99.90
8591;DHT22;4333;48.322;14.340;2023-02-15T18:50:30;1.30;99.90
8591;DHT22;4333;48.322;14.340;2023-02-15T18:52:57;1.30;99.90
8591;DHT22;4333;48.322;14.340;2023-02-15T18:55:26;1.20;99.90
8591;DHT22;4333;48.322;14.340;2023-02-15T18:57:55;1.20;99.90
8591;DHT22;4333;48.322;14.340;2023-02-15T19:00:22;1.20;99.90
8591;DHT22;4333;48.322;14.340;2023-02-15T19:02:58;1.10;99.90
8591;DHT22;4333;48.322;14.340;2023-02-15T19:05:44;1.10;99.90
8591;DHT22;4333;48.322;14.340;2023-02-15T19:08:18;1.10;99.90
8591;DHT22;4333;48.322;14.340;2023-02-15T19:10:49;1.10;99.90
8591;DHT22;4333;48.322;14.340;2023-02-15T19:13:16;1.10;99.90
8591;DHT22;4333;48.322;14.340;2023-02-15T19:15:42;1.10;99.90
8591;DHT22;4333;48.322;14.340;2023-02-15T19:18:11;1.10;99.90
8591;DHT22;4333;48.322;14.340;2023-02-15T19:20:43;1.10;99.90
8591;DHT22;4333;48.322;14.340;2023-02-15T19:23:19;1.10;99.90
8591;DHT22;4333;48.322;14.340;2023-02-15T19:25:49;1.10;99.90
8591;DHT22;4333;48.322;14.340;2023-02-15T19:28:31;1.10;99.90
8591;DHT22;4333;48.322;14.340;2023-02-15T19:31:03;1.10;99.90
8591;DHT22;4333;48.322;14.340;2023-02-15T19:33:29;1.20;99.90
8591;DHT22;4333;48.322;14.340;2023-02-15T19:35:56;1.10;99.90
8591;DHT22;4333;48.322;14.340;2023-02-15T19:38:25;1.20;99.90
8591;DHT22;4333;48.322;14.340;2023-02-15T19:41:04;1.20;99.90
8591;DHT22;4333;48.322;14.340;2023-02-15T19:43:30;1.30;99.90
8591;DHT22;4333;48.322;14.340;2023-02-15T19:45:59;1.20;99.90
8591;DHT22;4333;48.322;14.340;2023-02-15T19:48:25;1.30;99.90
8591;DHT22;4333;48.322;14.340;2023-02-15T19:50:51;1.30;99.90
8591;DHT22;4333;48.322;14.340;2023-02-15T19:53:25;1.30;99.90
8591;DHT22;4333;48.322;14.340;2023-02-15T19:55:57;1.20;99.90
8591;DHT22;4333;48.322;14.340;2023-02-15T19:58:24;1.20;99.90
8591;DHT22;4333;48.322;14.340;2023-02-15T20:00:50;1.10;99.90
8591;DHT22;4333;48.322;14.340;2023-02-15T20:03:16;1.20;99.90
8591;DHT22;4333;48.322;14.340;2023-02-15T20:05:43;1.20;99.90
8591;DHT22;4333;48.322;14.340;2023-02-15T20:08:18;1.20;99.90
8591;DHT22;4333;48.322;14.340;2023-02-15T20:10:45;1.20;99.90
8591;DHT22;4333;48.322;14.340;2023-02-15T20:13:15;1.20;99.90
8591;DHT22;4333;48.322;14.340;2023-02-15T20:15:41;1.20;99.90
8591;DHT22;4333;48.322;14.340;2023-02-15T20:18:11;1.10;99.90
8591;DHT22;4333;48.322;14.340;2023-02-15T20:20:49;1.10;99.90
8591;DHT22;4333;48.322;14.340;2023-02-15T20:23:27;1.00;99.90
8591;DHT22;4333;48.322;14.340;2023-02-15T20:26:09;1.00;99.90